createdAt,value
2023-06-06T00:03:21.766Z,69.8
2023-06-06T00:08:21.793Z,69.5
2023-06-06T00:13:21.777Z,70.7
2023-06-06T00:18:21.800Z,72.1
2023-06-06T00:23:21.789Z,70.2
2023-06-06T00:28:21.796Z,70.3
2023-06-06T00:33:21.799Z,70.4
2023-06-06T00:38:21.945Z,71.2
2023-06-06T00:43:21.883Z,73.6
2023-06-06T00:48:21.858Z,73.1
2023-06-06T00:53:21.827Z,72.3
2023-06-06T00:58:21.833Z,72.1
2023-06-06T01:03:21.842Z,70.9
2023-06-06T01:08:21.832Z,71.6
2023-06-06T01:13:21.832Z,71.8
2023-06-06T01:18:21.840Z,71.4
2023-06-06T01:23:21.842Z,73.6
2023-06-06T01:28:21.836Z,72.0
2023-06-06T01:33:21.925Z,71.6
2023-06-06T01:38:21.855Z,71.0
2023-06-06T01:43:21.856Z,72.5
2023-06-06T01:48:21.849Z,72.4
2023-06-06T01:53:21.973Z,73.7
2023-06-06T01:58:21.865Z,70.1
2023-06-06T02:03:21.903Z,72.4
2023-06-06T02:08:22.006Z,74.4
2023-06-06T02:13:22.050Z,72.7
2023-06-06T02:18:21.997Z,73.2
2023-06-06T02:23:21.916Z,74.1
2023-06-06T02:28:21.897Z,72.8
2023-06-06T02:33:21.967Z,74.0
2023-06-06T02:38:21.902Z,73.9
2023-06-06T02:43:21.977Z,73.3
2023-06-06T02:48:21.908Z,74.2
2023-06-06T02:53:21.916Z,73.7
2023-06-06T02:58:21.934Z,74.5
2023-06-06T03:03:21.998Z,73.3
2023-06-06T03:08:21.950Z,73.0
2023-06-06T03:13:22.136Z,74.2
2023-06-06T03:18:21.919Z,72.7
2023-06-06T03:23:21.930Z,74.4
2023-06-06T03:28:22.101Z,73.1
2023-06-06T03:33:22.095Z,73.9
2023-06-06T03:38:21.960Z,75.4
2023-06-06T03:43:22.022Z,75.5
2023-06-06T03:48:21.967Z,75.3
2023-06-06T03:53:21.981Z,75.3
2023-06-06T03:58:22.130Z,76.4
2023-06-06T04:03:21.995Z,72.2
2023-06-06T04:08:21.979Z,74.3
2023-06-06T04:13:21.984Z,75.9
2023-06-06T04:18:22.003Z,75.0
2023-06-06T04:23:21.998Z,72.5
2023-06-06T04:28:21.997Z,71.9
2023-06-06T04:33:22.018Z,71.9
2023-06-06T04:38:22.187Z,72.8
2023-06-06T04:43:22.013Z,71.7
2023-06-06T04:48:22.030Z,70.7
2023-06-06T04:53:22.020Z,69.6
2023-06-06T04:58:22.039Z,70.4
2023-06-06T05:03:22.033Z,74.0
2023-06-06T05:08:22.056Z,71.8
2023-06-06T05:13:22.035Z,74.0
2023-06-06T05:18:22.092Z,74.0
2023-06-06T05:23:22.071Z,74.9
2023-06-06T05:28:22.064Z,73.9
2023-06-06T05:33:22.138Z,75.1
2023-06-06T05:38:22.061Z,74.0
2023-06-06T05:43:22.180Z,73.4
2023-06-06T05:48:22.119Z,72.0
2023-06-06T05:53:22.114Z,74.7
2023-06-06T05:58:22.075Z,74.2
2023-06-06T06:03:22.081Z,70.7
2023-06-06T06:08:22.168Z,69.0
2023-06-06T06:13:22.088Z,71.0
2023-06-06T06:18:22.098Z,69.8
2023-06-06T06:23:22.093Z,68.7
2023-06-06T06:28:22.093Z,67.5
2023-06-06T06:33:22.135Z,67.6
2023-06-06T06:38:22.122Z,66.7
2023-06-06T06:43:22.102Z,65.3
2023-06-06T06:48:22.096Z,65.2
2023-06-06T06:53:22.106Z,63.4
2023-06-06T06:58:22.123Z,62.3
2023-06-06T07:03:22.109Z,61.3
2023-06-06T07:08:22.165Z,60.8
2023-06-06T07:13:22.118Z,59.5
2023-06-06T07:18:22.124Z,60.1
2023-06-06T07:23:22.299Z,56.6
2023-06-06T07:28:22.121Z,56.6
2023-06-06T07:33:22.134Z,58.1
2023-06-06T07:38:22.142Z,55.9
2023-06-06T07:43:22.133Z,55.2
2023-06-06T07:48:22.170Z,54.6
2023-06-06T07:53:22.155Z,53.1
2023-06-06T07:58:22.202Z,53.3
2023-06-06T08:03:22.211Z,51.9
2023-06-06T08:08:22.332Z,51.4
2023-06-06T08:13:22.160Z,48.0
2023-06-06T08:18:22.199Z,48.7
2023-06-06T08:23:22.217Z,48.4
2023-06-06T08:28:22.299Z,49.3
2023-06-06T08:33:22.301Z,48.5
2023-06-06T08:38:22.180Z,47.1
2023-06-06T08:43:24.587Z,47.1
2023-06-06T08:48:22.251Z,44.0
2023-06-06T08:53:22.946Z,45.5
2023-06-06T08:58:22.187Z,39.7
2023-06-06T09:03:22.189Z,41.6
2023-06-06T09:08:22.312Z,44.4
2023-06-06T09:13:22.195Z,43.8
2023-06-06T09:18:22.241Z,42.0
2023-06-06T09:23:22.198Z,43.2
2023-06-06T09:28:22.196Z,42.0
2023-06-06T09:33:22.224Z,42.0
2023-06-06T09:38:22.226Z,41.2
2023-06-06T09:43:22.199Z,38.9
2023-06-06T09:48:22.195Z,40.8
2023-06-06T09:53:22.209Z,40.2
2023-06-06T09:58:22.354Z,41.2
2023-06-06T10:03:22.214Z,40.7
2023-06-06T10:08:22.204Z,42.2
2023-06-06T10:13:22.206Z,42.3
2023-06-06T10:18:22.233Z,41.8
2023-06-06T10:23:22.229Z,38.7
2023-06-06T10:28:22.214Z,40.6
2023-06-06T10:33:22.223Z,40.6
2023-06-06T10:38:22.306Z,40.5
2023-06-06T10:43:22.254Z,39.2
2023-06-06T10:48:22.231Z,40.5
2023-06-06T10:53:22.262Z,38.9
2023-06-06T10:58:22.233Z,39.3
2023-06-06T11:03:23.327Z,38.9
2023-06-06T11:08:22.282Z,39.6
2023-06-06T11:13:22.238Z,39.2
2023-06-06T11:18:22.239Z,40.1
2023-06-06T11:23:22.300Z,38.9
2023-06-06T11:28:22.709Z,38.0
2023-06-06T11:33:22.251Z,37.6
2023-06-06T11:38:22.312Z,36.4
2023-06-06T11:43:22.251Z,35.8
2023-06-06T11:48:22.268Z,36.1
2023-06-06T11:53:22.256Z,34.3
2023-06-06T11:58:22.273Z,35.2
2023-06-06T12:03:22.259Z,35.1
2023-06-06T12:08:22.287Z,32.4
2023-06-06T12:13:22.255Z,34.2
2023-06-06T12:18:22.373Z,34.5
2023-06-06T12:23:22.249Z,33.6
2023-06-06T12:28:22.264Z,31.3
2023-06-06T12:33:22.264Z,33.3
2023-06-06T12:38:22.265Z,32.4
2023-06-06T12:43:22.315Z,33.4
2023-06-06T12:48:22.271Z,33.5
2023-06-06T12:53:22.503Z,35.1
2023-06-06T12:58:22.270Z,32.1
2023-06-06T13:03:24.605Z,32.1
2023-06-06T13:08:22.272Z,32.0
2023-06-06T13:13:22.280Z,32.9
2023-06-06T13:18:22.269Z,32.5
2023-06-06T13:23:22.279Z,33.2
2023-06-06T13:28:22.293Z,33.1
2023-06-06T13:33:22.410Z,34.9
2023-06-06T13:38:22.368Z,36.3
2023-06-06T13:43:22.336Z,36.1
2023-06-06T13:48:22.269Z,33.8
2023-06-06T13:53:22.279Z,33.8
2023-06-06T13:58:22.280Z,34.4
2023-06-06T14:03:22.271Z,33.3
2023-06-06T14:08:23.702Z,35.6
2023-06-06T14:13:22.277Z,34.9
2023-06-06T14:18:22.294Z,35.7
2023-06-06T14:23:22.286Z,35.8
2023-06-06T14:28:22.286Z,38.1
2023-06-06T14:33:22.304Z,37.2
2023-06-06T14:38:22.313Z,37.7
2023-06-06T14:43:22.336Z,38.2
2023-06-06T14:48:22.344Z,37.8
2023-06-06T14:53:22.313Z,40.4
2023-06-06T14:58:22.336Z,41.5
2023-06-06T15:03:22.327Z,42.1
2023-06-06T15:08:22.322Z,41.1
2023-06-06T15:13:22.330Z,40.7
2023-06-06T15:18:22.332Z,41.2
2023-06-06T15:23:22.333Z,41.7
2023-06-06T15:28:22.332Z,42.6
2023-06-06T15:33:22.400Z,42.7
2023-06-06T15:38:22.347Z,41.9
2023-06-06T15:43:22.488Z,42.7
2023-06-06T15:48:22.352Z,43.1
2023-06-06T15:53:22.369Z,43.5
2023-06-06T15:58:22.370Z,42.7
2023-06-06T16:03:22.388Z,44.0
2023-06-06T16:08:22.461Z,43.9
2023-06-06T16:13:22.384Z,43.9
2023-06-06T16:18:22.436Z,44.5
2023-06-06T16:23:22.395Z,45.2
2023-06-06T16:28:22.402Z,45.2
2023-06-06T16:33:22.407Z,44.9
2023-06-06T16:38:22.425Z,44.8
2023-06-06T16:43:22.411Z,45.3
2023-06-06T16:48:22.419Z,45.5
2023-06-06T16:53:22.412Z,46.1
2023-06-06T16:58:22.429Z,46.6
2023-06-06T17:03:22.421Z,46.3
2023-06-06T17:08:22.421Z,46.7
2023-06-06T17:13:22.425Z,46.0
2023-06-06T17:18:22.432Z,47.1
2023-06-06T17:23:22.431Z,48.0
2023-06-06T17:28:22.441Z,47.9
2023-06-06T17:33:22.535Z,47.7
2023-06-06T17:38:22.469Z,48.2
2023-06-06T17:43:22.464Z,49.1
2023-06-06T17:48:22.497Z,48.7
2023-06-06T17:53:22.465Z,49.2
2023-06-06T17:58:22.477Z,49.5
2023-06-06T18:03:22.478Z,50.3
2023-06-06T18:08:22.489Z,51.0
2023-06-06T18:13:22.495Z,51.0
2023-06-06T18:18:22.493Z,52.2
2023-06-06T18:23:22.498Z,52.6
2023-06-06T18:28:22.551Z,52.3
2023-06-06T18:33:22.502Z,52.7
2023-06-06T18:38:22.662Z,52.3
2023-06-06T18:43:22.509Z,52.7
2023-06-06T18:48:22.524Z,53.6
2023-06-06T18:53:22.512Z,53.0
2023-06-06T18:58:22.525Z,53.4
2023-06-06T19:03:22.531Z,53.9
2023-06-06T19:08:22.535Z,55.2
2023-06-06T19:13:22.552Z,54.8
2023-06-06T19:18:22.563Z,55.6
2023-06-06T19:23:22.552Z,57.4
2023-06-06T19:28:22.563Z,56.5
2023-06-06T19:33:22.590Z,56.7
2023-06-06T19:38:22.581Z,57.1
2023-06-06T19:43:22.622Z,59.7
2023-06-06T19:48:22.590Z,58.5
2023-06-06T19:53:22.582Z,60.2
2023-06-06T19:58:22.601Z,60.8
2023-06-06T20:03:22.598Z,63.4
2023-06-06T20:08:22.594Z,60.0
2023-06-06T20:13:22.612Z,59.4
2023-06-06T20:18:22.607Z,61.7
2023-06-06T20:23:22.604Z,64.1
2023-06-06T20:28:22.614Z,64.2
2023-06-06T20:33:22.609Z,63.8
2023-06-06T20:38:22.626Z,62.7
2023-06-06T20:43:22.613Z,61.8
2023-06-06T20:48:22.623Z,63.3
2023-06-06T20:53:22.619Z,63.5
2023-06-06T20:58:22.631Z,65.4
2023-06-06T21:03:22.628Z,65.0
2023-06-06T21:08:22.628Z,66.7
2023-06-06T21:13:22.639Z,65.1
2023-06-06T21:18:22.649Z,64.9
2023-06-06T21:23:22.645Z,67.0
2023-06-06T21:28:22.681Z,65.7
2023-06-06T21:33:22.664Z,65.6
2023-06-06T21:38:22.673Z,65.5
2023-06-06T21:43:22.672Z,67.3
2023-06-06T21:48:22.677Z,69.2
2023-06-06T21:53:22.682Z,69.4
2023-06-06T21:58:22.687Z,67.5
2023-06-06T22:03:22.691Z,69.1
2023-06-06T22:08:22.692Z,67.2
2023-06-06T22:13:22.690Z,69.4
2023-06-06T22:18:22.705Z,68.7
2023-06-06T22:23:22.709Z,69.1
2023-06-06T22:28:22.700Z,70.3
2023-06-06T22:33:22.704Z,69.2
2023-06-06T22:38:22.737Z,69.9
2023-06-06T22:43:22.719Z,69.4
2023-06-06T22:48:22.724Z,69.6
2023-06-06T22:53:22.785Z,69.7
2023-06-06T22:58:22.730Z,69.9
2023-06-06T23:03:22.735Z,71.4
2023-06-06T23:08:22.745Z,70.5
2023-06-06T23:13:22.783Z,69.7
2023-06-06T23:18:22.753Z,70.4
2023-06-06T23:23:22.760Z,70.2
2023-06-06T23:28:22.761Z,71.6
2023-06-06T23:33:22.764Z,71.2
2023-06-06T23:38:22.777Z,70.0
2023-06-06T23:43:22.781Z,71.2
2023-06-06T23:48:22.785Z,69.1
2023-06-06T23:53:22.777Z,71.7
2023-06-06T23:58:22.784Z,71.6
